Terminal Aerodrome Forecast
Issued by NWS

Home | Current Version | Previous Version | Text Only | Print | Product List | Glossary On
Versions: 1 2 3 4 5 6 7 8 9 10 11 12 13 14 15 16 17 18 19
000
FTAK31 PANC 280828 AAA
TAFADU
TAF AMD
PADU 280828Z 2808/2906 17010KT P6SM -SHRA SCT020 BKN040
      TEMPO 2808/2811 BKN020
     FM281200 VRB04KT P6SM -SHRA SCT025 BKN040
     FM281800 04003KT 6SM -RA BR BKN015=

USA.gov is the U.S. government's official web portal to all federal, state and local government web resources and services.